sensor_id;sensor_type;location;lat;lon;timestamp;temperature;humidity
12977;DHT22;6553;48.412;9.514;2022-12-07T00:01:40;17.60;62.30
12977;DHT22;6553;48.412;9.514;2022-12-07T00:04:11;17.60;62.30
12977;DHT22;6553;48.412;9.514;2022-12-07T00:06:43;17.60;62.30
12977;DHT22;6553;48.412;9.514;2022-12-07T00:09:12;17.60;62.30
12977;DHT22;6553;48.412;9.514;2022-12-07T00:11:39;17.60;62.30
12977;DHT22;6553;48.412;9.514;2022-12-07T00:14:07;17.60;62.30
12977;DHT22;6553;48.412;9.514;2022-12-07T00:16:36;17.60;62.30
12977;DHT22;6553;48.412;9.514;2022-12-07T00:19:03;17.60;62.30
12977;DHT22;6553;48.412;9.514;2022-12-07T00:21:31;17.60;62.30
12977;DHT22;6553;48.412;9.514;2022-12-07T00:23:59;17.60;62.30
12977;DHT22;6553;48.412;9.514;2022-12-07T00:26:28;17.60;62.30
12977;DHT22;6553;48.412;9.514;2022-12-07T00:29:06;17.60;62.30
12977;DHT22;6553;48.412;9.514;2022-12-07T00:31:38;17.60;62.30
12977;DHT22;6553;48.412;9.514;2022-12-07T00:34:05;17.60;62.30
12977;DHT22;6553;48.412;9.514;2022-12-07T00:36:32;17.60;62.30
12977;DHT22;6553;48.412;9.514;2022-12-07T00:39:00;17.60;62.30
12977;DHT22;6553;48.412;9.514;2022-12-07T00:41:29;17.60;62.30
12977;DHT22;6553;48.412;9.514;2022-12-07T00:43:56;17.60;62.30
12977;DHT22;6553;48.412;9.514;2022-12-07T00:46:22;17.60;62.30
12977;DHT22;6553;48.412;9.514;2022-12-07T00:48:49;17.60;62.30
12977;DHT22;6553;48.412;9.514;2022-12-07T00:51:18;17.60;62.30
12977;DHT22;6553;48.412;9.514;2022-12-07T00:53:45;17.60;62.30
12977;DHT22;6553;48.412;9.514;2022-12-07T00:56:13;17.60;62.30
12977;DHT22;6553;48.412;9.514;2022-12-07T00:58:40;17.60;62.30
12977;DHT22;6553;48.412;9.514;2022-12-07T01:01:07;17.60;62.30
12977;DHT22;6553;48.412;9.514;2022-12-07T01:03:34;17.60;62.30
12977;DHT22;6553;48.412;9.514;2022-12-07T01:06:00;17.60;62.30
12977;DHT22;6553;48.412;9.514;2022-12-07T01:08:28;17.60;62.30
12977;DHT22;6553;48.412;9.514;2022-12-07T01:11:01;17.60;62.30
12977;DHT22;6553;48.412;9.514;2022-12-07T01:13:30;17.60;62.30
12977;DHT22;6553;48.412;9.514;2022-12-07T01:15:58;17.60;62.30
12977;DHT22;6553;48.412;9.514;2022-12-07T01:18:27;17.60;62.30
12977;DHT22;6553;48.412;9.514;2022-12-07T01:21:02;17.60;62.30
12977;DHT22;6553;48.412;9.514;2022-12-07T01:23:33;17.60;62.30
12977;DHT22;6553;48.412;9.514;2022-12-07T01:26:02;17.60;62.30
12977;DHT22;6553;48.412;9.514;2022-12-07T01:28:30;17.60;62.30
12977;DHT22;6553;48.412;9.514;2022-12-07T01:31:17;17.60;62.30
12977;DHT22;6553;48.412;9.514;2022-12-07T01:33:47;17.60;62.30
12977;DHT22;6553;48.412;9.514;2022-12-07T01:36:17;17.60;62.30
12977;DHT22;6553;48.412;9.514;2022-12-07T01:38:46;17.60;62.30
12977;DHT22;6553;48.412;9.514;2022-12-07T01:41:13;17.60;62.30
12977;DHT22;6553;48.412;9.514;2022-12-07T01:46:37;17.60;62.30
12977;DHT22;6553;48.412;9.514;2022-12-07T01:49:05;17.60;62.30
12977;DHT22;6553;48.412;9.514;2022-12-07T01:51:34;17.60;62.30
12977;DHT22;6553;48.412;9.514;2022-12-07T01:54:02;17.60;62.30
12977;DHT22;6553;48.412;9.514;2022-12-07T01:56:28;17.60;62.30
12977;DHT22;6553;48.412;9.514;2022-12-07T01:58:56;17.60;62.30
12977;DHT22;6553;48.412;9.514;2022-12-07T02:01:24;17.60;62.30
12977;DHT22;6553;48.412;9.514;2022-12-07T02:03:50;17.60;62.30
12977;DHT22;6553;48.412;9.514;2022-12-07T02:06:20;17.60;62.30
12977;DHT22;6553;48.412;9.514;2022-12-07T02:08:49;17.60;62.30
12977;DHT22;6553;48.412;9.514;2022-12-07T02:11:16;17.60;62.30
12977;DHT22;6553;48.412;9.514;2022-12-07T02:13:43;17.60;62.30
12977;DHT22;6553;48.412;9.514;2022-12-07T02:28:26;17.60;62.30
12977;DHT22;6553;48.412;9.514;2022-12-07T02:31:08;17.60;62.30
12977;DHT22;6553;48.412;9.514;2022-12-07T02:33:46;17.60;62.30
12977;DHT22;6553;48.412;9.514;2022-12-07T02:36:39;17.60;62.30
12977;DHT22;6553;48.412;9.514;2022-12-07T02:39:28;17.60;62.30
12977;DHT22;6553;48.412;9.514;2022-12-07T02:42:15;17.60;62.30
12977;DHT22;6553;48.412;9.514;2022-12-07T02:44:47;17.60;62.30
12977;DHT22;6553;48.412;9.514;2022-12-07T02:47:16;17.60;62.30
12977;DHT22;6553;48.412;9.514;2022-12-07T02:49:44;17.60;62.30
12977;DHT22;6553;48.412;9.514;2022-12-07T02:52:10;17.60;62.30
12977;DHT22;6553;48.412;9.514;2022-12-07T02:54:36;17.60;62.30
12977;DHT22;6553;48.412;9.514;2022-12-07T02:57:08;17.60;62.30
12977;DHT22;6553;48.412;9.514;2022-12-07T03:00:06;17.60;62.30
12977;DHT22;6553;48.412;9.514;2022-12-07T03:11:49;17.60;62.30
12977;DHT22;6553;48.412;9.514;2022-12-07T03:14:25;17.60;62.30
12977;DHT22;6553;48.412;9.514;2022-12-07T03:17:18;17.60;62.40
12977;DHT22;6553;48.412;9.514;2022-12-07T03:19:51;17.60;62.40
12977;DHT22;6553;48.412;9.514;2022-12-07T03:22:23;17.60;62.50
12977;DHT22;6553;48.412;9.514;2022-12-07T03:24:57;17.70;62.70
12977;DHT22;6553;48.412;9.514;2022-12-07T03:27:39;17.60;62.40
12977;DHT22;6553;48.412;9.514;2022-12-07T03:30:15;17.60;62.30
12977;DHT22;6553;48.412;9.514;2022-12-07T03:32:48;17.60;62.40
12977;DHT22;6553;48.412;9.514;2022-12-07T03:38:18;17.60;62.50
12977;DHT22;6553;48.412;9.514;2022-12-07T03:43:42;17.60;62.40
12977;DHT22;6553;48.412;9.514;2022-12-07T03:49:11;17.60;62.40
12977;DHT22;6553;48.412;9.514;2022-12-07T03:54:43;17.60;62.50
12977;DHT22;6553;48.412;9.514;2022-12-07T03:57:14;17.60;62.40
12977;DHT22;6553;48.412;9.514;2022-12-07T03:59:40;17.60;62.40
12977;DHT22;6553;48.412;9.514;2022-12-07T04:02:09;17.60;62.40
12977;DHT22;6553;48.412;9.514;2022-12-07T04:04:38;17.60;62.40
12977;DHT22;6553;48.412;9.514;2022-12-07T04:07:04;17.60;62.50
12977;DHT22;6553;48.412;9.514;2022-12-07T04:09:30;17.60;62.40
12977;DHT22;6553;48.412;9.514;2022-12-07T04:11:56;17.60;62.40
12977;DHT22;6553;48.412;9.514;2022-12-07T04:14:22;17.60;62.40
12977;DHT22;6553;48.412;9.514;2022-12-07T04:16:53;17.60;63.20
12977;DHT22;6553;48.412;9.514;2022-12-07T04:19:28;17.60;63.20
12977;DHT22;6553;48.412;9.514;2022-12-07T04:21:57;17.60;62.40
12977;DHT22;6553;48.412;9.514;2022-12-07T04:24:24;17.60;62.40
12977;DHT22;6553;48.412;9.514;2022-12-07T04:26:50;17.60;62.40
12977;DHT22;6553;48.412;9.514;2022-12-07T04:29:16;17.60;62.40
12977;DHT22;6553;48.412;9.514;2022-12-07T04:31:43;17.60;62.40
12977;DHT22;6553;48.412;9.514;2022-12-07T04:34:10;17.60;62.40
12977;DHT22;6553;48.412;9.514;2022-12-07T04:36:36;17.60;62.40
12977;DHT22;6553;48.412;9.514;2022-12-07T04:39:04;17.60;62.40
12977;DHT22;6553;48.412;9.514;2022-12-07T04:41:30;17.60;62.30
12977;DHT22;6553;48.412;9.514;2022-12-07T04:44:02;17.60;62.30
12977;DHT22;6553;48.412;9.514;2022-12-07T04:46:30;17.60;62.30
12977;DHT22;6553;48.412;9.514;2022-12-07T04:48:57;17.60;62.30
12977;DHT22;6553;48.412;9.514;2022-12-07T04:51:26;17.60;62.30
12977;DHT22;6553;48.412;9.514;2022-12-07T04:53:54;17.60;62.30
12977;DHT22;6553;48.412;9.514;2022-12-07T04:56:21;17.60;62.30
12977;DHT22;6553;48.412;9.514;2022-12-07T04:58:48;17.60;62.30
12977;DHT22;6553;48.412;9.514;2022-12-07T05:01:16;17.60;62.30
12977;DHT22;6553;48.412;9.514;2022-12-07T05:03:42;17.60;62.30
12977;DHT22;6553;48.412;9.514;2022-12-07T05:06:09;17.60;62.30
12977;DHT22;6553;48.412;9.514;2022-12-07T05:08:36;17.60;62.30
12977;DHT22;6553;48.412;9.514;2022-12-07T05:11:03;17.60;62.30
12977;DHT22;6553;48.412;9.514;2022-12-07T05:13:31;17.60;62.30
12977;DHT22;6553;48.412;9.514;2022-12-07T05:15:57;17.60;62.30
12977;DHT22;6553;48.412;9.514;2022-12-07T05:18:23;17.60;62.30
12977;DHT22;6553;48.412;9.514;2022-12-07T05:20:50;17.60;62.30
12977;DHT22;6553;48.412;9.514;2022-12-07T05:23:17;17.60;62.30
12977;DHT22;6553;48.412;9.514;2022-12-07T05:25:43;17.50;62.20
12977;DHT22;6553;48.412;9.514;2022-12-07T05:28:10;17.60;62.30
12977;DHT22;6553;48.412;9.514;2022-12-07T05:30:36;17.60;62.30
12977;DHT22;6553;48.412;9.514;2022-12-07T05:33:03;17.60;62.30
12977;DHT22;6553;48.412;9.514;2022-12-07T05:35:29;17.50;62.10
12977;DHT22;6553;48.412;9.514;2022-12-07T05:37:55;17.60;62.20
12977;DHT22;6553;48.412;9.514;2022-12-07T05:40:22;17.50;62.10
12977;DHT22;6553;48.412;9.514;2022-12-07T05:42:48;17.60;62.30
12977;DHT22;6553;48.412;9.514;2022-12-07T05:45:14;17.60;62.00
12977;DHT22;6553;48.412;9.514;2022-12-07T05:47:39;17.60;62.20
12977;DHT22;6553;48.412;9.514;2022-12-07T05:50:06;17.60;62.00
12977;DHT22;6553;48.412;9.514;2022-12-07T05:52:32;17.60;62.00
12977;DHT22;6553;48.412;9.514;2022-12-07T05:54:58;17.50;62.00
12977;DHT22;6553;48.412;9.514;2022-12-07T05:57:24;17.60;62.10
12977;DHT22;6553;48.412;9.514;2022-12-07T05:59:49;17.50;62.00
12977;DHT22;6553;48.412;9.514;2022-12-07T06:02:16;17.60;62.10
12977;DHT22;6553;48.412;9.514;2022-12-07T06:04:45;17.60;62.10
12977;DHT22;6553;48.412;9.514;2022-12-07T06:07:14;17.60;62.00
12977;DHT22;6553;48.412;9.514;2022-12-07T06:09:41;17.60;62.10
12977;DHT22;6553;48.412;9.514;2022-12-07T06:12:10;17.60;62.00
12977;DHT22;6553;48.412;9.514;2022-12-07T06:14:55;17.60;62.10
12977;DHT22;6553;48.412;9.514;2022-12-07T06:17:21;17.60;62.00
12977;DHT22;6553;48.412;9.514;2022-12-07T06:19:46;17.50;61.90
12977;DHT22;6553;48.412;9.514;2022-12-07T06:22:12;17.50;61.90
12977;DHT22;6553;48.412;9.514;2022-12-07T06:24:39;17.50;61.90
12977;DHT22;6553;48.412;9.514;2022-12-07T06:27:05;17.50;62.00
12977;DHT22;6553;48.412;9.514;2022-12-07T06:29:31;17.50;61.90
12977;DHT22;6553;48.412;9.514;2022-12-07T06:31:57;17.50;61.90
12977;DHT22;6553;48.412;9.514;2022-12-07T06:34:24;17.50;61.90
12977;DHT22;6553;48.412;9.514;2022-12-07T06:36:51;17.50;61.90
12977;DHT22;6553;48.412;9.514;2022-12-07T06:39:19;17.50;61.90
12977;DHT22;6553;48.412;9.514;2022-12-07T06:41:50;17.50;61.90
12977;DHT22;6553;48.412;9.514;2022-12-07T06:44:21;17.50;61.90
12977;DHT22;6553;48.412;9.514;2022-12-07T06:46:48;17.50;61.90
12977;DHT22;6553;48.412;9.514;2022-12-07T06:49:14;17.50;61.90
12977;DHT22;6553;48.412;9.514;2022-12-07T06:51:40;17.60;62.00
12977;DHT22;6553;48.412;9.514;2022-12-07T06:54:08;17.50;61.90
12977;DHT22;6553;48.412;9.514;2022-12-07T06:56:35;17.50;61.90
12977;DHT22;6553;48.412;9.514;2022-12-07T06:59:01;17.50;61.90
12977;DHT22;6553;48.412;9.514;2022-12-07T07:01:28;17.50;62.70
12977;DHT22;6553;48.412;9.514;2022-12-07T07:03:53;17.50;61.90
12977;DHT22;6553;48.412;9.514;2022-12-07T07:06:19;17.50;61.80
12977;DHT22;6553;48.412;9.514;2022-12-07T07:08:45;17.50;61.80
12977;DHT22;6553;48.412;9.514;2022-12-07T07:11:10;17.50;61.80
12977;DHT22;6553;48.412;9.514;2022-12-07T07:13:37;17.50;62.50
12977;DHT22;6553;48.412;9.514;2022-12-07T07:16:03;17.50;61.80
12977;DHT22;6553;48.412;9.514;2022-12-07T07:18:29;17.60;61.80
12977;DHT22;6553;48.412;9.514;2022-12-07T07:20:55;17.50;61.70
12977;DHT22;6553;48.412;9.514;2022-12-07T07:23:21;17.50;61.60
12977;DHT22;6553;48.412;9.514;2022-12-07T07:25:47;17.50;61.70
12977;DHT22;6553;48.412;9.514;2022-12-07T07:28:14;17.50;61.70
12977;DHT22;6553;48.412;9.514;2022-12-07T07:30:40;17.50;61.70
12977;DHT22;6553;48.412;9.514;2022-12-07T07:33:06;17.50;61.80
12977;DHT22;6553;48.412;9.514;2022-12-07T07:35:33;17.50;61.80
12977;DHT22;6553;48.412;9.514;2022-12-07T07:38:00;17.50;61.60
12977;DHT22;6553;48.412;9.514;2022-12-07T07:40:27;17.50;61.60
12977;DHT22;6553;48.412;9.514;2022-12-07T07:42:56;17.50;61.70
12977;DHT22;6553;48.412;9.514;2022-12-07T07:45:23;17.50;61.60
12977;DHT22;6553;48.412;9.514;2022-12-07T07:47:51;17.50;61.70
12977;DHT22;6553;48.412;9.514;2022-12-07T07:50:17;17.50;61.70
12977;DHT22;6553;48.412;9.514;2022-12-07T07:52:44;17.50;61.60
12977;DHT22;6553;48.412;9.514;2022-12-07T07:55:10;17.50;61.60
12977;DHT22;6553;48.412;9.514;2022-12-07T07:57:38;17.50;61.60
12977;DHT22;6553;48.412;9.514;2022-12-07T08:00:10;17.50;61.60
12977;DHT22;6553;48.412;9.514;2022-12-07T08:02:38;17.50;61.50
12977;DHT22;6553;48.412;9.514;2022-12-07T08:05:05;17.50;61.50
12977;DHT22;6553;48.412;9.514;2022-12-07T08:07:31;17.50;61.50
12977;DHT22;6553;48.412;9.514;2022-12-07T08:09:56;17.50;61.50
12977;DHT22;6553;48.412;9.514;2022-12-07T08:12:22;17.50;61.50
12977;DHT22;6553;48.412;9.514;2022-12-07T08:14:48;17.50;62.20
12977;DHT22;6553;48.412;9.514;2022-12-07T08:17:14;17.50;61.50
12977;DHT22;6553;48.412;9.514;2022-12-07T08:19:39;17.50;61.50
12977;DHT22;6553;48.412;9.514;2022-12-07T08:22:05;17.50;61.40
12977;DHT22;6553;48.412;9.514;2022-12-07T08:24:33;17.50;61.50
12977;DHT22;6553;48.412;9.514;2022-12-07T08:27:00;17.50;61.50
12977;DHT22;6553;48.412;9.514;2022-12-07T08:29:26;17.50;61.50
12977;DHT22;6553;48.412;9.514;2022-12-07T08:31:52;17.50;61.50
12977;DHT22;6553;48.412;9.514;2022-12-07T08:34:18;17.50;61.50
12977;DHT22;6553;48.412;9.514;2022-12-07T08:36:44;17.60;61.50
12977;DHT22;6553;48.412;9.514;2022-12-07T08:39:10;17.50;61.50
12977;DHT22;6553;48.412;9.514;2022-12-07T08:41:36;17.50;61.50
12977;DHT22;6553;48.412;9.514;2022-12-07T08:44:02;17.50;61.50
12977;DHT22;6553;48.412;9.514;2022-12-07T08:46:35;17.50;61.40
12977;DHT22;6553;48.412;9.514;2022-12-07T08:51:44;17.50;61.40
12977;DHT22;6553;48.412;9.514;2022-12-07T08:54:13;17.50;61.40
12977;DHT22;6553;48.412;9.514;2022-12-07T08:56:42;17.60;61.40
12977;DHT22;6553;48.412;9.514;2022-12-07T08:59:09;17.50;61.20
12977;DHT22;6553;48.412;9.514;2022-12-07T09:01:35;17.50;61.20
12977;DHT22;6553;48.412;9.514;2022-12-07T09:04:01;17.60;61.30
12977;DHT22;6553;48.412;9.514;2022-12-07T09:06:27;17.60;61.40
12977;DHT22;6553;48.412;9.514;2022-12-07T09:08:58;17.60;61.40
12977;DHT22;6553;48.412;9.514;2022-12-07T09:11:27;17.50;61.30
12977;DHT22;6553;48.412;9.514;2022-12-07T09:13:53;17.60;61.40
12977;DHT22;6553;48.412;9.514;2022-12-07T09:16:18;17.50;61.30
12977;DHT22;6553;48.412;9.514;2022-12-07T09:18:44;17.60;61.40
12977;DHT22;6553;48.412;9.514;2022-12-07T09:21:10;17.60;61.30
12977;DHT22;6553;48.412;9.514;2022-12-07T09:23:36;17.60;61.30
12977;DHT22;6553;48.412;9.514;2022-12-07T09:26:03;17.60;61.40
12977;DHT22;6553;48.412;9.514;2022-12-07T09:28:33;17.60;61.30
12977;DHT22;6553;48.412;9.514;2022-12-07T09:31:00;17.60;61.30
12977;DHT22;6553;48.412;9.514;2022-12-07T09:33:27;17.60;61.30
12977;DHT22;6553;48.412;9.514;2022-12-07T09:35:53;17.60;61.30
12977;DHT22;6553;48.412;9.514;2022-12-07T09:38:20;17.60;61.30
12977;DHT22;6553;48.412;9.514;2022-12-07T09:40:47;17.60;61.30
12977;DHT22;6553;48.412;9.514;2022-12-07T09:43:21;17.60;61.30
12977;DHT22;6553;48.412;9.514;2022-12-07T09:45:52;17.60;61.30
12977;DHT22;6553;48.412;9.514;2022-12-07T09:48:22;17.60;61.30
12977;DHT22;6553;48.412;9.514;2022-12-07T09:50:58;17.60;61.20
12977;DHT22;6553;48.412;9.514;2022-12-07T09:53:33;17.60;61.30
12977;DHT22;6553;48.412;9.514;2022-12-07T09:55:59;17.60;61.30
12977;DHT22;6553;48.412;9.514;2022-12-07T09:58:27;17.60;61.30
12977;DHT22;6553;48.412;9.514;2022-12-07T10:01:16;17.60;61.30
12977;DHT22;6553;48.412;9.514;2022-12-07T10:03:58;17.70;61.40
12977;DHT22;6553;48.412;9.514;2022-12-07T10:06:35;17.70;61.40
12977;DHT22;6553;48.412;9.514;2022-12-07T10:09:01;17.70;61.40
12977;DHT22;6553;48.412;9.514;2022-12-07T10:11:28;17.70;61.40
12977;DHT22;6553;48.412;9.514;2022-12-07T10:13:53;17.70;61.40
12977;DHT22;6553;48.412;9.514;2022-12-07T10:16:32;17.70;61.40
12977;DHT22;6553;48.412;9.514;2022-12-07T10:19:29;17.70;61.40
12977;DHT22;6553;48.412;9.514;2022-12-07T10:24:29;17.70;61.40
12977;DHT22;6553;48.412;9.514;2022-12-07T10:26:56;17.60;61.40
12977;DHT22;6553;48.412;9.514;2022-12-07T10:31:57;17.70;61.40
12977;DHT22;6553;48.412;9.514;2022-12-07T10:34:27;17.70;61.40
12977;DHT22;6553;48.412;9.514;2022-12-07T10:39:50;17.70;61.30
12977;DHT22;6553;48.412;9.514;2022-12-07T10:42:23;17.70;61.30
12977;DHT22;6553;48.412;9.514;2022-12-07T10:45:14;17.70;61.30
12977;DHT22;6553;48.412;9.514;2022-12-07T10:47:52;17.70;61.30
12977;DHT22;6553;48.412;9.514;2022-12-07T10:53:59;17.70;61.40
12977;DHT22;6553;48.412;9.514;2022-12-07T11:00:01;17.70;61.30
12977;DHT22;6553;48.412;9.514;2022-12-07T11:12:05;17.70;61.30
12977;DHT22;6553;48.412;9.514;2022-12-07T11:15:17;17.70;61.30
12977;DHT22;6553;48.412;9.514;2022-12-07T11:20:54;17.70;61.40
12977;DHT22;6553;48.412;9.514;2022-12-07T11:23:46;17.70;61.30
12977;DHT22;6553;48.412;9.514;2022-12-07T11:32:19;17.70;61.20
12977;DHT22;6553;48.412;9.514;2022-12-07T11:37:30;17.70;61.30
12977;DHT22;6553;48.412;9.514;2022-12-07T11:40:20;17.70;61.20
12977;DHT22;6553;48.412;9.514;2022-12-07T11:42:55;17.70;61.20
12977;DHT22;6553;48.412;9.514;2022-12-07T11:45:31;17.70;61.30
12977;DHT22;6553;48.412;9.514;2022-12-07T11:48:20;17.70;61.30
12977;DHT22;6553;48.412;9.514;2022-12-07T11:50:57;17.70;61.20
12977;DHT22;6553;48.412;9.514;2022-12-07T11:53:33;17.70;61.30
12977;DHT22;6553;48.412;9.514;2022-12-07T11:56:13;17.70;61.30
12977;DHT22;6553;48.412;9.514;2022-12-07T12:06:39;17.70;61.20
12977;DHT22;6553;48.412;9.514;2022-12-07T12:09:19;17.70;61.10
12977;DHT22;6553;48.412;9.514;2022-12-07T12:12:07;17.70;61.20
12977;DHT22;6553;48.412;9.514;2022-12-07T12:15:03;17.70;61.20
12977;DHT22;6553;48.412;9.514;2022-12-07T12:23:18;17.70;61.40
12977;DHT22;6553;48.412;9.514;2022-12-07T12:26:19;17.70;61.40
12977;DHT22;6553;48.412;9.514;2022-12-07T12:29:15;17.70;61.40
12977;DHT22;6553;48.412;9.514;2022-12-07T12:32:06;17.70;61.40
12977;DHT22;6553;48.412;9.514;2022-12-07T12:42:51;17.70;61.40
12977;DHT22;6553;48.412;9.514;2022-12-07T12:45:28;17.70;61.30
12977;DHT22;6553;48.412;9.514;2022-12-07T12:48:03;17.80;61.40
12977;DHT22;6553;48.412;9.514;2022-12-07T12:50:35;17.70;61.40
12977;DHT22;6553;48.412;9.514;2022-12-07T12:53:23;17.70;61.40
12977;DHT22;6553;48.412;9.514;2022-12-07T12:56:23;17.70;61.20
12977;DHT22;6553;48.412;9.514;2022-12-07T13:01:48;17.70;61.10
12977;DHT22;6553;48.412;9.514;2022-12-07T13:04:25;17.70;61.00
12977;DHT22;6553;48.412;9.514;2022-12-07T13:06:55;17.70;61.10
12977;DHT22;6553;48.412;9.514;2022-12-07T13:09:24;17.70;61.10
12977;DHT22;6553;48.412;9.514;2022-12-07T13:12:00;17.70;61.00
12977;DHT22;6553;48.412;9.514;2022-12-07T13:17:11;17.70;61.00
12977;DHT22;6553;48.412;9.514;2022-12-07T13:19:56;17.70;61.10
12977;DHT22;6553;48.412;9.514;2022-12-07T13:25:23;17.70;61.00
12977;DHT22;6553;48.412;9.514;2022-12-07T13:28:18;17.70;61.80
12977;DHT22;6553;48.412;9.514;2022-12-07T13:30:54;17.70;60.80
12977;DHT22;6553;48.412;9.514;2022-12-07T13:33:28;17.70;61.00
12977;DHT22;6553;48.412;9.514;2022-12-07T13:35:55;17.70;61.10
12977;DHT22;6553;48.412;9.514;2022-12-07T13:38:28;17.80;61.10
12977;DHT22;6553;48.412;9.514;2022-12-07T13:41:17;17.70;61.00
12977;DHT22;6553;48.412;9.514;2022-12-07T13:46:15;17.70;61.00
12977;DHT22;6553;48.412;9.514;2022-12-07T13:48:49;17.70;61.00
12977;DHT22;6553;48.412;9.514;2022-12-07T13:51:23;17.70;61.00
12977;DHT22;6553;48.412;9.514;2022-12-07T13:53:59;17.70;61.00
12977;DHT22;6553;48.412;9.514;2022-12-07T13:56:34;17.70;61.10
12977;DHT22;6553;48.412;9.514;2022-12-07T13:59:01;17.70;61.00
12977;DHT22;6553;48.412;9.514;2022-12-07T14:01:30;17.70;61.00
12977;DHT22;6553;48.412;9.514;2022-12-07T14:04:17;17.70;61.10
12977;DHT22;6553;48.412;9.514;2022-12-07T14:06:55;17.70;61.00
12977;DHT22;6553;48.412;9.514;2022-12-07T14:09:23;17.70;61.00
12977;DHT22;6553;48.412;9.514;2022-12-07T14:11:53;17.70;60.90
12977;DHT22;6553;48.412;9.514;2022-12-07T14:14:30;17.70;61.00
12977;DHT22;6553;48.412;9.514;2022-12-07T14:17:10;17.70;61.20
12977;DHT22;6553;48.412;9.514;2022-12-07T14:19:51;17.70;61.10
12977;DHT22;6553;48.412;9.514;2022-12-07T14:25:13;17.70;61.00
12977;DHT22;6553;48.412;9.514;2022-12-07T14:27:59;17.70;61.00
12977;DHT22;6553;48.412;9.514;2022-12-07T14:30:30;17.70;61.00
12977;DHT22;6553;48.412;9.514;2022-12-07T14:33:01;17.70;61.00
12977;DHT22;6553;48.412;9.514;2022-12-07T14:35:29;17.70;60.90
12977;DHT22;6553;48.412;9.514;2022-12-07T14:37:56;17.70;61.00
12977;DHT22;6553;48.412;9.514;2022-12-07T14:40:24;17.70;60.90
12977;DHT22;6553;48.412;9.514;2022-12-07T14:43:12;17.70;61.00
12977;DHT22;6553;48.412;9.514;2022-12-07T14:45:41;17.70;60.80
12977;DHT22;6553;48.412;9.514;2022-12-07T14:48:14;17.70;60.90
12977;DHT22;6553;48.412;9.514;2022-12-07T14:50:47;17.70;60.90
12977;DHT22;6553;48.412;9.514;2022-12-07T14:53:18;17.70;61.00
12977;DHT22;6553;48.412;9.514;2022-12-07T14:55:50;17.70;61.10
12977;DHT22;6553;48.412;9.514;2022-12-07T14:58:16;17.70;61.00
12977;DHT22;6553;48.412;9.514;2022-12-07T15:00:43;17.70;61.00
12977;DHT22;6553;48.412;9.514;2022-12-07T15:03:10;17.60;61.00
12977;DHT22;6553;48.412;9.514;2022-12-07T15:05:36;17.70;61.20
12977;DHT22;6553;48.412;9.514;2022-12-07T15:08:03;17.70;61.00
12977;DHT22;6553;48.412;9.514;2022-12-07T15:10:32;17.70;61.00
12977;DHT22;6553;48.412;9.514;2022-12-07T15:13:00;17.70;60.90
12977;DHT22;6553;48.412;9.514;2022-12-07T15:15:46;17.60;60.90
12977;DHT22;6553;48.412;9.514;2022-12-07T15:18:14;17.70;61.10
12977;DHT22;6553;48.412;9.514;2022-12-07T15:20:40;17.70;61.00
12977;DHT22;6553;48.412;9.514;2022-12-07T15:23:06;17.70;61.00
12977;DHT22;6553;48.412;9.514;2022-12-07T15:25:32;17.70;61.00
12977;DHT22;6553;48.412;9.514;2022-12-07T15:27:58;17.70;61.00
12977;DHT22;6553;48.412;9.514;2022-12-07T15:30:25;17.70;61.10
12977;DHT22;6553;48.412;9.514;2022-12-07T15:32:51;17.70;61.20
12977;DHT22;6553;48.412;9.514;2022-12-07T15:35:18;17.70;61.20
12977;DHT22;6553;48.412;9.514;2022-12-07T15:37:45;17.70;61.10
12977;DHT22;6553;48.412;9.514;2022-12-07T15:40:13;17.70;61.10
12977;DHT22;6553;48.412;9.514;2022-12-07T15:42:39;17.70;61.20
12977;DHT22;6553;48.412;9.514;2022-12-07T15:45:07;17.70;61.10
12977;DHT22;6553;48.412;9.514;2022-12-07T15:47:42;17.70;61.10
12977;DHT22;6553;48.412;9.514;2022-12-07T15:50:15;17.60;61.00
12977;DHT22;6553;48.412;9.514;2022-12-07T15:52:41;17.70;61.00
12977;DHT22;6553;48.412;9.514;2022-12-07T15:55:08;17.70;61.10
12977;DHT22;6553;48.412;9.514;2022-12-07T15:57:36;17.70;61.00
12977;DHT22;6553;48.412;9.514;2022-12-07T16:00:08;17.70;61.00
12977;DHT22;6553;48.412;9.514;2022-12-07T16:02:36;17.60;61.00
12977;DHT22;6553;48.412;9.514;2022-12-07T16:05:02;17.70;61.10
12977;DHT22;6553;48.412;9.514;2022-12-07T16:07:28;17.70;61.10
12977;DHT22;6553;48.412;9.514;2022-12-07T16:09:53;17.60;61.00
12977;DHT22;6553;48.412;9.514;2022-12-07T16:12:19;17.70;61.10
12977;DHT22;6553;48.412;9.514;2022-12-07T16:14:45;17.70;61.20
12977;DHT22;6553;48.412;9.514;2022-12-07T16:17:11;17.60;61.10
12977;DHT22;6553;48.412;9.514;2022-12-07T16:19:37;17.60;61.10
12977;DHT22;6553;48.412;9.514;2022-12-07T16:22:04;17.70;61.20
12977;DHT22;6553;48.412;9.514;2022-12-07T16:24:31;17.60;61.00
12977;DHT22;6553;48.412;9.514;2022-12-07T16:26:57;17.70;61.20
12977;DHT22;6553;48.412;9.514;2022-12-07T16:29:23;17.60;61.00
12977;DHT22;6553;48.412;9.514;2022-12-07T16:31:49;17.60;60.90
12977;DHT22;6553;48.412;9.514;2022-12-07T16:34:16;17.70;61.40
12977;DHT22;6553;48.412;9.514;2022-12-07T16:36:42;17.70;61.20
12977;DHT22;6553;48.412;9.514;2022-12-07T16:39:08;17.70;61.10
12977;DHT22;6553;48.412;9.514;2022-12-07T16:41:34;17.60;61.10
12977;DHT22;6553;48.412;9.514;2022-12-07T16:44:09;17.70;61.10
12977;DHT22;6553;48.412;9.514;2022-12-07T16:46:39;17.60;61.00
12977;DHT22;6553;48.412;9.514;2022-12-07T16:49:05;17.60;61.20
12977;DHT22;6553;48.412;9.514;2022-12-07T16:51:31;17.60;61.00
12977;DHT22;6553;48.412;9.514;2022-12-07T16:53:59;17.60;61.00
12977;DHT22;6553;48.412;9.514;2022-12-07T16:56:25;17.60;61.10
12977;DHT22;6553;48.412;9.514;2022-12-07T16:58:52;17.60;61.10
12977;DHT22;6553;48.412;9.514;2022-12-07T17:01:19;17.60;61.20
12977;DHT22;6553;48.412;9.514;2022-12-07T17:03:48;17.60;61.10
12977;DHT22;6553;48.412;9.514;2022-12-07T17:06:15;17.60;61.00
12977;DHT22;6553;48.412;9.514;2022-12-07T17:08:48;17.60;61.00
12977;DHT22;6553;48.412;9.514;2022-12-07T17:11:18;17.60;61.10
12977;DHT22;6553;48.412;9.514;2022-12-07T17:13:46;17.60;61.00
12977;DHT22;6553;48.412;9.514;2022-12-07T17:16:30;17.60;61.00
12977;DHT22;6553;48.412;9.514;2022-12-07T17:18:56;17.60;60.90
12977;DHT22;6553;48.412;9.514;2022-12-07T17:21:22;17.60;60.90
12977;DHT22;6553;48.412;9.514;2022-12-07T17:23:49;17.60;60.90
12977;DHT22;6553;48.412;9.514;2022-12-07T17:26:23;17.60;60.90
12977;DHT22;6553;48.412;9.514;2022-12-07T17:28:50;17.60;60.80
12977;DHT22;6553;48.412;9.514;2022-12-07T17:31:18;17.60;60.90
12977;DHT22;6553;48.412;9.514;2022-12-07T17:33:45;17.60;61.00
12977;DHT22;6553;48.412;9.514;2022-12-07T17:36:12;17.60;60.90
12977;DHT22;6553;48.412;9.514;2022-12-07T17:38:40;17.60;60.90
12977;DHT22;6553;48.412;9.514;2022-12-07T17:41:27;17.60;60.90
12977;DHT22;6553;48.412;9.514;2022-12-07T17:44:14;17.60;60.90
12977;DHT22;6553;48.412;9.514;2022-12-07T17:46:42;17.60;60.80
12977;DHT22;6553;48.412;9.514;2022-12-07T17:49:09;17.60;60.90
12977;DHT22;6553;48.412;9.514;2022-12-07T17:51:35;17.60;60.80
12977;DHT22;6553;48.412;9.514;2022-12-07T17:54:19;17.60;60.90
12977;DHT22;6553;48.412;9.514;2022-12-07T17:56:45;17.60;60.70